createdAt,value
2022-08-11T00:01:14.998Z,21.18
2022-08-11T00:03:51.380Z,21.17
2022-08-11T00:06:27.091Z,21.17
2022-08-11T00:08:56.888Z,21.15
2022-08-11T00:11:35.339Z,21.13
2022-08-11T00:14:05.226Z,21.12
2022-08-11T00:16:34.925Z,21.09
2022-08-11T00:19:05.423Z,21.07
2022-08-11T00:22:04.191Z,21.04
2022-08-11T00:24:34.981Z,20.99
2022-08-11T00:27:33.662Z,20.95
2022-08-11T00:30:02.422Z,20.92
2022-08-11T00:32:32.758Z,20.91
2022-08-11T00:35:55.338Z,20.90
2022-08-11T00:37:55.509Z,20.88
2022-08-11T00:40:29.534Z,20.85
2022-08-11T00:43:10.572Z,20.82
2022-08-11T00:45:44.064Z,20.79
2022-08-11T00:48:27.945Z,20.75
2022-08-11T00:51:11.215Z,20.73
2022-08-11T00:53:48.133Z,20.71
2022-08-11T00:56:34.200Z,20.68
2022-08-11T00:59:59.122Z,20.64
2022-08-11T01:03:05.012Z,20.61
2022-08-11T01:06:09.379Z,20.59
2022-08-11T01:08:59.727Z,20.57
2022-08-11T01:11:56.435Z,20.55
2022-08-11T01:15:14.165Z,20.52
2022-08-11T01:18:15.867Z,20.50
2022-08-11T01:21:15.935Z,20.49
2022-08-11T01:24:32.664Z,20.46
2022-08-11T01:27:27.871Z,20.41
2022-08-11T01:30:42.741Z,20.39
2022-08-11T01:33:44.382Z,20.35
2022-08-11T01:36:56.986Z,20.33
2022-08-11T01:40:02.942Z,20.30
2022-08-11T01:43:33.715Z,20.27
2022-08-11T01:46:08.961Z,20.22
2022-08-11T01:48:43.716Z,20.22
2022-08-11T01:51:47.342Z,20.19
2022-08-11T01:54:25.985Z,20.16
2022-08-11T01:57:14.116Z,20.13
2022-08-11T01:59:49.496Z,20.11
2022-08-11T02:02:50.230Z,20.10
2022-08-11T02:05:56.459Z,20.09
2022-08-11T02:08:44.248Z,20.07
2022-08-11T02:11:35.845Z,20.07
2022-08-11T02:14:29.371Z,20.07
2022-08-11T02:17:10.725Z,20.08
2022-08-11T02:20:07.619Z,20.08
2022-08-11T02:23:01.477Z,20.08
2022-08-11T02:25:35.933Z,20.09
2022-08-11T02:28:11.957Z,20.09
2022-08-11T02:31:14.646Z,20.09
2022-08-11T02:34:06.387Z,20.05
2022-08-11T02:36:44.322Z,20.05
2022-08-11T02:39:16.382Z,20.05
2022-08-11T02:42:32.695Z,20.03
2022-08-11T02:45:17.739Z,20.04
2022-08-11T02:48:09.434Z,20.04
2022-08-11T02:50:44.084Z,20.06
2022-08-11T02:53:21.692Z,20.08
2022-08-11T02:56:03.150Z,20.09
2022-08-11T02:58:41.878Z,20.13
2022-08-11T03:01:21.314Z,20.15
2022-08-11T03:03:56.592Z,20.17
2022-08-11T03:06:37.700Z,20.20
2022-08-11T03:09:11.380Z,20.22
2022-08-11T03:12:08.036Z,20.24
2022-08-11T03:15:05.747Z,20.26
2022-08-11T03:17:42.689Z,20.29
2022-08-11T03:20:23.638Z,20.32
2022-08-11T03:23:03.071Z,20.34
2022-08-11T03:25:35.782Z,20.38
2022-08-11T03:28:16.496Z,20.42
2022-08-11T03:30:54.000Z,20.44
2022-08-11T03:33:46.219Z,20.45
2022-08-11T03:36:24.304Z,20.47
2022-08-11T03:39:07.642Z,20.53
2022-08-11T03:42:02.490Z,20.53
2022-08-11T03:44:57.724Z,20.59
2022-08-11T03:47:52.658Z,20.55
2022-08-11T03:50:37.667Z,20.60
2022-08-11T03:53:17.574Z,20.64
2022-08-11T03:56:24.348Z,20.66
2022-08-11T03:59:25.252Z,20.67
2022-08-11T04:02:11.052Z,20.65
2022-08-11T04:05:28.372Z,20.66
2022-08-11T04:08:37.646Z,20.63
2022-08-11T04:12:02.889Z,20.61
2022-08-11T04:15:05.321Z,20.58
2022-08-11T04:17:59.766Z,20.56
2022-08-11T04:20:45.627Z,20.54
2022-08-11T04:24:34.525Z,20.52
2022-08-11T04:26:39.044Z,20.49
2022-08-11T04:29:36.023Z,20.48
2022-08-11T04:32:32.921Z,20.46
2022-08-11T04:35:18.972Z,20.43
2022-08-11T04:38:21.149Z,20.43
2022-08-11T04:41:32.191Z,20.41
2022-08-11T04:44:57.668Z,20.39
2022-08-11T04:48:06.268Z,20.38
2022-08-11T04:51:16.001Z,20.36
2022-08-11T04:54:16.054Z,20.34
2022-08-11T04:57:07.081Z,20.37
2022-08-11T05:00:24.055Z,20.41
2022-08-11T05:03:25.173Z,20.43
2022-08-11T05:06:37.333Z,20.48
2022-08-11T05:09:30.182Z,20.55
2022-08-11T05:12:24.881Z,20.61
2022-08-11T05:15:12.385Z,20.66
2022-08-11T05:17:59.446Z,20.71
2022-08-11T05:20:46.590Z,20.78
2022-08-11T05:23:34.541Z,20.88
2022-08-11T05:26:47.541Z,20.96
2022-08-11T07:26:28.687Z,23.93
2022-08-11T07:28:59.105Z,23.96
2022-08-11T07:31:37.213Z,24.03
2022-08-11T07:34:18.637Z,24.09
2022-08-11T07:36:52.566Z,24.12
2022-08-11T07:39:24.274Z,24.16
2022-08-11T07:41:57.290Z,24.22
2022-08-11T07:44:34.331Z,24.29
2022-08-11T07:47:21.997Z,24.34
2022-08-11T07:50:12.251Z,24.43
2022-08-11T07:52:41.723Z,24.48
2022-08-11T07:55:15.619Z,24.56
2022-08-11T07:58:16.576Z,24.63
2022-08-11T08:01:21.868Z,24.67
2022-08-11T08:04:09.231Z,24.70
2022-08-11T08:06:56.562Z,24.78
2022-08-11T08:09:43.670Z,24.84
2022-08-11T08:12:30.389Z,24.88
2022-08-11T08:15:19.896Z,24.92
2022-08-11T08:18:10.028Z,24.96
2022-08-11T08:20:47.217Z,25.01
2022-08-11T08:23:17.535Z,25.11
2022-08-11T08:25:47.658Z,25.18
2022-08-11T08:28:18.891Z,25.24
2022-08-11T08:30:51.804Z,25.29
2022-08-11T08:33:25.909Z,25.35
2022-08-11T08:36:11.919Z,25.42
2022-08-11T08:38:42.675Z,25.52
2022-08-11T08:41:13.219Z,25.58
2022-08-11T08:43:49.616Z,25.68
2022-08-11T08:46:23.591Z,25.76
2022-08-11T08:48:53.587Z,25.84
2022-08-11T08:52:02.576Z,25.95
2022-08-11T08:54:35.645Z,26.11
2022-08-11T08:57:06.465Z,26.26
2022-08-11T08:59:48.627Z,26.45
2022-08-11T09:02:34.122Z,26.59
2022-08-11T09:05:05.820Z,26.83
2022-08-11T09:07:38.602Z,27.09
2022-08-11T09:10:11.346Z,27.26
2022-08-11T09:12:43.585Z,27.63
2022-08-11T09:15:15.060Z,28.02
2022-08-11T09:17:47.893Z,28.29
2022-08-11T09:20:20.881Z,28.63
2022-08-11T09:26:17.027Z,29.68
2022-08-11T09:28:46.514Z,29.96
2022-08-11T09:31:16.229Z,30.43
2022-08-11T09:33:47.137Z,31.04
2022-08-11T09:36:33.138Z,31.55
2022-08-11T09:39:19.742Z,31.83
2022-08-11T09:42:00.969Z,32.81
2022-08-11T09:44:50.674Z,33.71
2022-08-11T09:47:24.623Z,34.86
2022-08-11T09:50:00.593Z,35.86
2022-08-11T09:52:32.743Z,36.38
2022-08-11T09:55:02.574Z,36.57
2022-08-11T09:57:48.613Z,36.51
2022-08-11T10:00:18.249Z,36.29
2022-08-11T10:02:50.021Z,35.90
2022-08-11T10:05:39.253Z,35.70
2022-08-11T10:08:10.657Z,35.81
2022-08-11T10:10:40.772Z,35.74
2022-08-11T10:14:30.572Z,35.64
2022-08-11T10:16:15.363Z,35.99
2022-08-11T10:18:52.993Z,36.44
2022-08-11T10:21:31.650Z,36.87
2022-08-11T10:24:19.518Z,37.03
2022-08-11T10:26:58.915Z,37.00
2022-08-11T10:29:51.205Z,36.57
2022-08-11T10:32:52.790Z,35.94
2022-08-11T10:35:29.519Z,35.58
2022-08-11T10:38:08.431Z,35.40
2022-08-11T10:40:41.042Z,35.22
2022-08-11T10:43:14.326Z,34.94
2022-08-11T10:46:25.737Z,34.92
2022-08-11T10:48:59.627Z,34.83
2022-08-11T10:51:50.641Z,34.59
2022-08-11T10:54:41.709Z,34.61
2022-08-11T10:57:29.320Z,34.37
2022-08-11T10:59:58.779Z,34.10
2022-08-11T11:02:28.484Z,33.99
2022-08-11T11:05:04.292Z,33.76
2022-08-11T11:07:41.514Z,33.33
2022-08-11T11:10:14.230Z,32.76
2022-08-11T11:13:04.295Z,32.39
2022-08-11T11:15:53.623Z,32.16
2022-08-11T11:18:25.234Z,31.92
2022-08-11T11:20:58.660Z,31.70
2022-08-11T11:23:34.953Z,31.45
2022-08-11T11:26:27.189Z,31.05
2022-08-11T11:29:41.908Z,30.75
2022-08-11T11:32:22.561Z,30.72
2022-08-11T11:35:12.550Z,30.66
2022-08-11T11:37:56.200Z,30.53
2022-08-11T11:40:32.356Z,30.51
2022-08-11T11:43:02.989Z,30.50
2022-08-11T11:45:32.041Z,30.48
2022-08-11T11:48:02.275Z,30.49
2022-08-11T11:50:34.607Z,30.41
2022-08-11T11:53:06.098Z,30.29
2022-08-11T11:55:35.300Z,30.21
2022-08-11T11:58:23.805Z,30.17
2022-08-11T12:01:12.107Z,30.06
2022-08-11T12:03:41.909Z,30.04
2022-08-11T12:06:14.503Z,29.94
2022-08-11T12:08:44.424Z,29.87
2022-08-11T12:11:31.891Z,29.71
2022-08-11T12:14:10.211Z,29.56
2022-08-11T12:16:41.448Z,29.50
2022-08-11T12:19:14.206Z,29.39
2022-08-11T12:22:05.251Z,29.34
2022-08-11T12:24:53.570Z,29.26
2022-08-11T12:27:25.306Z,29.25
2022-08-11T12:30:00.751Z,29.24
2022-08-11T12:32:33.943Z,29.11
2022-08-11T12:35:03.335Z,29.17
2022-08-11T12:37:35.160Z,29.24
2022-08-11T12:40:43.711Z,29.28
2022-08-11T12:43:37.918Z,29.31
2022-08-11T12:46:11.855Z,29.35
2022-08-11T12:49:04.233Z,29.37
2022-08-11T12:52:13.649Z,29.25
2022-08-11T12:55:00.620Z,29.26
2022-08-11T12:57:52.170Z,29.30
2022-08-11T13:00:39.441Z,29.33
2022-08-11T13:03:29.260Z,29.38
2022-08-11T13:05:59.823Z,29.43
2022-08-11T13:08:30.781Z,29.45
2022-08-11T13:11:19.017Z,29.49
2022-08-11T13:13:55.553Z,29.51
2022-08-11T13:16:30.545Z,29.54
2022-08-11T13:19:01.924Z,29.55
2022-08-11T13:21:31.390Z,29.56
2022-08-11T13:24:03.159Z,29.57
2022-08-11T13:26:48.762Z,29.54
2022-08-11T13:29:23.788Z,29.49
2022-08-11T13:31:54.641Z,29.46
2022-08-11T13:34:27.508Z,29.41
2022-08-11T13:36:58.365Z,29.35
2022-08-11T13:39:28.714Z,29.29
2022-08-11T13:41:59.547Z,29.16
2022-08-11T13:44:31.230Z,29.18
2022-08-11T13:47:02.627Z,29.14
2022-08-11T13:49:33.917Z,29.12
2022-08-11T13:52:03.589Z,29.05
2022-08-11T13:54:36.357Z,28.99
2022-08-11T13:57:13.558Z,28.93
2022-08-11T14:00:13.188Z,28.91
2022-08-11T14:02:57.238Z,28.88
2022-08-11T14:05:30.635Z,28.87
2022-08-11T14:08:03.310Z,28.85
2022-08-11T14:10:34.307Z,28.79
2022-08-11T14:13:25.739Z,28.78
2022-08-11T14:15:55.194Z,28.76
2022-08-11T14:18:27.292Z,28.71
2022-08-11T14:21:17.570Z,28.69
2022-08-11T14:23:49.491Z,28.68
2022-08-11T14:26:27.890Z,28.68
2022-08-11T14:28:59.277Z,28.65
2022-08-11T14:31:30.451Z,28.63
2022-08-11T14:34:03.624Z,28.56
2022-08-11T14:36:37.216Z,28.46
2022-08-11T14:39:13.056Z,28.35
2022-08-11T14:42:11.672Z,28.36
2022-08-11T14:45:16.706Z,28.30
2022-08-11T14:47:48.902Z,28.29
2022-08-11T14:50:23.274Z,28.29
2022-08-11T14:52:56.737Z,28.26
2022-08-11T14:55:44.515Z,28.26
2022-08-11T14:58:16.457Z,28.23
2022-08-11T15:00:45.659Z,28.22
2022-08-11T15:03:14.715Z,28.15
2022-08-11T15:05:57.262Z,28.14
2022-08-11T15:08:48.595Z,28.09
2022-08-11T15:11:36.818Z,28.02
2022-08-11T15:14:07.972Z,27.91
2022-08-11T15:16:56.154Z,27.90
2022-08-11T15:19:40.569Z,27.90
2022-08-11T15:22:28.941Z,27.91
2022-08-11T15:25:00.772Z,27.90
2022-08-11T15:27:49.457Z,27.87
2022-08-11T15:30:36.138Z,27.83
2022-08-11T15:33:25.847Z,27.78
2022-08-11T15:36:27.911Z,27.69
2022-08-11T15:39:05.212Z,27.63
2022-08-11T15:41:58.902Z,27.64
2022-08-11T15:45:02.070Z,27.60
2022-08-11T15:47:41.479Z,27.57
2022-08-11T15:50:15.460Z,27.56
2022-08-11T15:52:49.638Z,27.55
2022-08-11T15:55:18.745Z,27.52
2022-08-11T15:58:08.724Z,27.50
2022-08-11T16:00:56.894Z,27.46
2022-08-11T16:04:07.965Z,27.43
2022-08-11T16:06:42.800Z,27.40
2022-08-11T16:09:19.172Z,27.39
2022-08-11T16:11:49.690Z,27.36
2022-08-11T16:14:38.319Z,27.35
2022-08-11T16:17:09.367Z,27.32
2022-08-11T16:19:39.833Z,27.29
2022-08-11T16:22:13.524Z,27.27
2022-08-11T16:27:03.732Z,27.24
2022-08-11T16:27:38.607Z,27.18
2022-08-11T16:30:10.444Z,27.13
2022-08-11T16:32:43.178Z,27.08
2022-08-11T16:35:32.217Z,27.04
2022-08-11T16:38:18.928Z,27.02
2022-08-11T16:40:49.108Z,26.98
2022-08-11T16:43:37.622Z,26.96
2022-08-11T16:46:26.635Z,26.92
2022-08-11T16:48:56.763Z,26.90
2022-08-11T16:51:25.391Z,26.88
2022-08-11T16:54:05.305Z,26.88
2022-08-11T16:56:38.801Z,26.85
2022-08-11T16:59:17.353Z,26.79
2022-08-11T17:02:00.623Z,26.78
2022-08-11T17:04:53.616Z,26.78
2022-08-11T17:07:43.246Z,26.79
2022-08-11T17:10:53.502Z,26.76
2022-08-11T17:13:30.443Z,26.70
2022-08-11T17:16:12.084Z,26.69
2022-08-11T17:18:58.502Z,26.69
2022-08-11T17:21:29.983Z,26.66
2022-08-11T17:24:06.420Z,26.63
2022-08-11T17:26:57.141Z,26.62
2022-08-11T17:29:30.017Z,26.58
2022-08-11T17:32:18.181Z,26.55
2022-08-11T17:35:07.330Z,26.52
2022-08-11T17:37:37.889Z,26.47
2022-08-11T17:40:12.448Z,26.43
2022-08-11T17:43:11.965Z,26.39
2022-08-11T17:45:56.639Z,26.32
2022-08-11T17:48:27.925Z,26.27
2022-08-11T17:51:00.537Z,26.23
2022-08-11T17:54:02.247Z,26.19
2022-08-11T17:57:08.237Z,26.15
2022-08-11T17:59:53.529Z,26.09
2022-08-11T18:02:43.983Z,26.05
2022-08-11T18:05:14.115Z,26.02
2022-08-11T18:08:03.895Z,25.97
2022-08-11T18:10:52.229Z,25.92
2022-08-11T18:13:41.861Z,25.88
2022-08-11T18:16:28.416Z,25.84
2022-08-11T18:19:14.477Z,25.77
2022-08-11T18:22:14.812Z,25.73
2022-08-11T18:25:07.574Z,25.67
2022-08-11T18:27:54.752Z,25.63
2022-08-11T18:30:42.915Z,25.59
2022-08-11T18:36:41.399Z,25.50
2022-08-11T18:39:31.046Z,25.46
2022-08-11T18:42:29.085Z,25.43
2022-08-11T18:45:19.203Z,25.35
2022-08-11T18:48:11.332Z,25.31
2022-08-11T18:51:29.845Z,25.25
2022-08-11T18:54:09.528Z,25.21
2022-08-11T18:56:55.513Z,25.18
2022-08-11T18:59:45.988Z,25.13
2022-08-11T19:02:48.269Z,25.08
2022-08-11T19:06:32.174Z,25.06
2022-08-11T19:08:53.669Z,25.01
2022-08-11T19:11:42.692Z,24.97
2022-08-11T19:14:31.558Z,24.95
2022-08-11T19:17:44.398Z,24.92
2022-08-11T19:20:30.305Z,24.88
2022-08-11T19:23:16.887Z,24.85
2022-08-11T19:26:03.963Z,24.82
2022-08-11T19:28:52.586Z,24.81
2022-08-11T19:31:44.025Z,24.78
2022-08-11T19:34:33.588Z,24.75
2022-08-11T19:37:24.043Z,24.72
2022-08-11T19:40:11.763Z,24.68
2022-08-11T19:42:57.720Z,24.64
2022-08-11T19:45:44.836Z,24.59
2022-08-11T19:48:40.110Z,24.58
2022-08-11T19:51:28.747Z,24.58
2022-08-11T19:54:16.270Z,24.56
2022-08-11T19:57:03.951Z,24.54
2022-08-11T19:59:51.208Z,24.53
2022-08-11T20:02:36.820Z,24.49
2022-08-11T20:05:23.419Z,24.47
2022-08-11T20:08:12.582Z,24.45
2022-08-11T20:10:59.796Z,24.43
2022-08-11T20:13:45.898Z,24.38
2022-08-11T20:16:37.131Z,24.34
2022-08-11T20:19:26.177Z,24.31
2022-08-11T20:22:31.088Z,24.28
2022-08-11T20:25:18.871Z,24.22
2022-08-11T20:28:07.003Z,24.20
2022-08-11T20:30:54.256Z,24.18
2022-08-11T20:33:41.580Z,24.13
2022-08-11T20:36:29.260Z,24.11
2022-08-11T20:39:17.241Z,24.08
2022-08-11T20:42:06.402Z,24.06
2022-08-11T20:44:55.952Z,24.02
2022-08-11T20:47:58.985Z,23.99
2022-08-11T20:50:46.487Z,23.95
2022-08-11T20:53:36.014Z,23.94
2022-08-11T20:56:28.771Z,23.90
2022-08-11T20:59:21.617Z,23.87
2022-08-11T21:02:10.542Z,23.83
2022-08-11T21:05:00.028Z,23.80
2022-08-11T21:07:57.080Z,23.76
2022-08-11T21:10:50.543Z,23.73
2022-08-11T21:13:42.091Z,23.68
2022-08-11T21:16:33.917Z,23.64
2022-08-11T21:20:01.417Z,23.63
2022-08-11T21:22:37.428Z,23.59
2022-08-11T21:25:26.126Z,23.57
2022-08-11T21:28:15.621Z,23.55
2022-08-11T21:31:02.114Z,23.50
2022-08-11T21:33:50.524Z,23.47
2022-08-11T21:36:38.687Z,23.43
2022-08-11T21:39:26.544Z,23.40
2022-08-11T21:42:13.719Z,23.36
2022-08-11T21:45:01.412Z,23.32
2022-08-11T21:48:00.790Z,23.29
2022-08-11T21:50:48.967Z,23.24
2022-08-11T21:53:34.538Z,23.20
2022-08-11T21:56:22.058Z,23.13
2022-08-11T21:59:13.220Z,23.09
2022-08-11T22:01:59.496Z,23.05
2022-08-11T22:04:46.107Z,23.04
2022-08-11T22:07:40.896Z,23.03
2022-08-11T22:10:42.238Z,22.99
2022-08-11T22:13:30.322Z,22.96
2022-08-11T22:16:16.455Z,22.93
2022-08-11T22:19:03.044Z,22.89
2022-08-11T22:22:01.486Z,22.88
2022-08-11T22:24:52.929Z,22.85
2022-08-11T22:27:39.509Z,22.82
2022-08-11T22:30:26.947Z,22.79
2022-08-11T22:33:15.162Z,22.77
2022-08-11T22:36:03.227Z,22.71
2022-08-11T22:38:51.207Z,22.67
2022-08-11T22:41:39.552Z,22.63
2022-08-11T22:44:26.145Z,22.61
2022-08-11T22:47:15.493Z,22.57
2022-08-11T22:50:11.731Z,22.53
2022-08-11T22:52:59.921Z,22.48
2022-08-11T22:55:46.428Z,22.43
2022-08-11T22:58:34.746Z,22.41
2022-08-11T23:01:21.449Z,22.37
2022-08-11T23:04:08.045Z,22.33
2022-08-11T23:06:54.168Z,22.31
2022-08-11T23:09:42.793Z,22.30
2022-08-11T23:12:29.009Z,22.28
2022-08-11T23:15:16.888Z,22.26
2022-08-11T23:18:03.644Z,22.21
2022-08-11T23:20:50.313Z,22.17
2022-08-11T23:23:38.505Z,22.14
2022-08-11T23:26:24.684Z,22.11
2022-08-11T23:29:12.869Z,22.09
2022-08-11T23:32:01.119Z,22.05
2022-08-11T23:35:36.964Z,22.03
2022-08-11T23:38:00.037Z,21.99
2022-08-11T23:40:45.930Z,21.97
2022-08-11T23:43:39.030Z,21.96
2022-08-11T23:46:25.415Z,21.93
2022-08-11T23:49:16.139Z,21.90
2022-08-11T23:52:04.012Z,21.88
2022-08-11T23:54:52.112Z,21.87
2022-08-11T23:57:38.690Z,21.85
